Time;durP1;ratioP1;P1;durP2;ratioP2;P2;SDS_P1;SDS_P2;PMS_P1;PMS_P2;Temp;Humidity;BMP_temperature;BMP_pressure;BME280_temperature;BME280_humidity;BME280_pressure;Samples;Min_cycle;Max_cycle;Signal;HPM_P1;HPM_P2
2022/02/23 00:00:23;;;;;;;;;8.00;5.00;;;;;12.51;100.00;102316.91;4958970;28;47730;-86
2022/02/23 00:02:49;;;;;;;;;8.50;6.00;;;;;12.48;100.00;102310.59;4975707;28;45994;-85
2022/02/23 00:05:15;;;;;;;;;8.00;5.00;;;;;12.44;100.00;102314.72;4959089;28;45449;-85
2022/02/23 00:07:41;;;;;;;;;7.00;5.75;;;;;12.37;100.00;102320.34;5044125;28;45517;-84
2022/02/23 00:10:07;;;;;;;;;4.75;4.00;;;;;12.34;100.00;102315.88;4958688;28;47569;-85
2022/02/23 00:12:35;;;;;;;;;8.00;5.75;;;;;12.38;100.00;102327.34;4976266;28;45348;-86
2022/02/23 00:15:01;;;;;;;;;8.25;7.25;;;;;12.42;100.00;102323.22;4991480;28;45283;-86
2022/02/23 00:17:27;;;;;;;;;4.25;3.00;;;;;12.39;100.00;102327.44;4975518;28;45458;-85
2022/02/23 00:19:54;;;;;;;;;6.75;5.50;;;;;12.35;100.00;102329.75;4975555;28;46349;-85
2022/02/23 00:22:19;;;;;;;;;8.00;6.50;;;;;12.32;100.00;102330.47;4975971;28;45846;-85
2022/02/23 00:24:46;;;;;;;;;6.50;5.00;;;;;12.33;100.00;102332.25;4977336;28;45330;-86
2022/02/23 00:27:14;;;;;;;;;10.75;6.25;;;;;12.32;100.00;102334.72;4976380;28;45462;-85
2022/02/23 00:29:40;;;;;;;;;11.00;6.00;;;;;12.23;100.00;102322.09;4975371;28;45351;-85
2022/02/23 00:32:07;;;;;;;;;5.00;5.00;;;;;12.21;100.00;102327.16;5029080;28;45328;-85
2022/02/23 00:34:33;;;;;;;;;8.25;5.50;;;;;12.20;100.00;102322.78;4969662;28;45463;-85
2022/02/23 00:36:58;;;;;;;;;6.00;5.00;;;;;12.16;100.00;102315.63;4976629;28;45462;-85
2022/02/23 00:39:25;;;;;;;;;5.00;5.00;;;;;12.18;100.00;102319.22;4957677;28;47611;-85
2022/02/23 00:41:51;;;;;;;;;4.75;4.75;;;;;12.20;100.00;102329.69;4987397;28;45899;-85
2022/02/23 00:44:20;;;;;;;;;7.50;5.00;;;;;12.11;100.00;102309.22;4975738;28;45339;-85
2022/02/23 00:46:46;;;;;;;;;8.75;6.00;;;;;12.14;100.00;102324.13;4974765;28;45600;-85
2022/02/23 00:49:14;;;;;;;;;7.50;5.25;;;;;12.10;100.00;102320.41;4975436;28;46206;-85
2022/02/23 00:51:40;;;;;;;;;8.75;5.50;;;;;12.03;100.00;102320.84;4973976;28;45454;-85
2022/02/23 00:54:06;;;;;;;;;8.50;5.00;;;;;12.00;100.00;102320.63;4975580;28;45893;-85
2022/02/23 00:56:31;;;;;;;;;5.50;5.50;;;;;11.96;100.00;102301.34;4958283;28;45733;-85
2022/02/23 00:58:57;;;;;;;;;5.25;5.25;;;;;12.10;100.00;102328.19;4957398;28;47435;-85
2022/02/23 01:01:23;;;;;;;;;7.75;5.75;;;;;12.07;100.00;102334.09;4975232;28;45232;-85
2022/02/23 01:03:49;;;;;;;;;7.00;5.50;;;;;12.01;100.00;102330.22;4975337;28;45193;-85
2022/02/23 01:06:15;;;;;;;;;6.50;5.00;;;;;12.00;100.00;102337.13;4975536;28;45550;-85
2022/02/23 01:08:40;;;;;;;;;6.75;4.25;;;;;12.01;100.00;102341.50;4957793;28;47068;-84
2022/02/23 01:11:06;;;;;;;;;5.25;5.25;;;;;11.99;100.00;102332.72;4957455;28;45490;-85
2022/02/23 01:13:32;;;;;;;;;8.25;6.75;;;;;11.97;100.00;102342.06;4958376;28;45547;-85
2022/02/23 01:15:58;;;;;;;;;8.25;5.75;;;;;11.92;100.00;102341.78;4976857;28;45510;-85
2022/02/23 01:18:24;;;;;;;;;5.75;4.50;;;;;11.90;100.00;102340.78;4976818;28;45803;-84
2022/02/23 01:20:49;;;;;;;;;6.50;5.75;;;;;11.89;100.00;102338.97;4975776;28;45339;-85
2022/02/23 01:23:15;;;;;;;;;8.00;5.00;;;;;11.84;100.00;102334.28;4991524;28;45446;-84
2022/02/23 01:25:41;;;;;;;;;4.25;4.25;;;;;11.84;100.00;102339.47;4975884;28;45248;-84
2022/02/23 01:28:08;;;;;;;;;5.25;4.50;;;;;11.80;100.00;102333.22;4977929;28;46282;-84
2022/02/23 01:30:35;;;;;;;;;6.00;5.25;;;;;11.82;100.00;102348.91;4990678;28;45701;-85
2022/02/23 01:33:01;;;;;;;;;6.00;5.00;;;;;11.79;100.00;102343.50;4974960;28;45268;-84
2022/02/23 01:35:27;;;;;;;;;5.00;4.25;;;;;11.77;100.00;102349.47;4975239;28;45264;-85
2022/02/23 01:37:53;;;;;;;;;6.00;3.75;;;;;11.80;100.00;102346.19;4973071;28;46796;-84
2022/02/23 01:40:21;;;;;;;;;7.25;5.00;;;;;11.77;100.00;102339.09;4957812;28;45424;-84
2022/02/23 01:42:47;;;;;;;;;8.50;4.75;;;;;11.81;100.00;102341.91;4957980;28;45397;-85
2022/02/23 01:45:13;;;;;;;;;8.50;6.75;;;;;11.81;100.00;102344.50;4974745;28;45331;-84
2022/02/23 01:47:39;;;;;;;;;7.50;5.50;;;;;11.79;100.00;102341.78;4974346;28;46274;-83
2022/02/23 01:50:07;;;;;;;;;9.50;6.00;;;;;11.81;100.00;102354.88;4957638;28;45759;-84
2022/02/23 01:52:33;;;;;;;;;10.75;5.50;;;;;11.69;100.00;102345.50;4975066;28;45425;-84
2022/02/23 01:54:58;;;;;;;;;8.00;4.00;;;;;11.76;100.00;102359.78;4957671;28;45378;-84
2022/02/23 01:57:24;;;;;;;;;5.00;3.75;;;;;11.75;100.00;102374.44;4957337;28;47833;-84
2022/02/23 01:59:50;;;;;;;;;8.00;4.33;;;;;11.70;100.00;102362.88;4974424;28;45347;-84
2022/02/23 02:02:17;;;;;;;;;5.25;5.00;;;;;11.76;100.00;102360.66;4974638;28;45355;-84
2022/02/23 02:04:43;;;;;;;;;8.75;6.50;;;;;11.75;100.00;102377.03;4964105;28;45712;-84
2022/02/23 02:07:09;;;;;;;;;6.25;4.00;;;;;11.73;100.00;102365.63;4974498;28;46385;-84
2022/02/23 02:09:35;;;;;;;;;5.50;5.00;;;;;11.75;100.00;102365.75;4957660;28;45272;-84
2022/02/23 02:12:00;;;;;;;;;4.00;3.00;;;;;11.71;100.00;102368.94;4957663;28;45497;-85
2022/02/23 02:14:26;;;;;;;;;6.00;4.00;;;;;11.69;100.00;102375.72;4974670;28;45675;-84
2022/02/23 02:16:52;;;;;;;;;5.25;4.00;;;;;11.71;100.00;102385.44;4974405;28;45516;-85
2022/02/23 02:19:18;;;;;;;;;5.75;5.75;;;;;11.69;100.00;102374.03;4956795;28;45488;-84
2022/02/23 02:21:57;;;;;;;;;4.25;4.00;;;;;11.73;100.00;102388.09;4956995;28;45517;-85
2022/02/23 02:24:28;;;;;;;;;5.75;3.75;;;;;11.70;100.00;102387.91;4957707;28;45247;-85
2022/02/23 02:26:55;;;;;;;;;4.00;4.00;;;;;11.67;100.00;102385.09;4975957;28;45388;-85
2022/02/23 02:29:21;;;;;;;;;8.50;5.00;;;;;11.61;100.00;102380.41;4974818;28;45834;-84
2022/02/23 02:31:48;;;;;;;;;4.50;4.00;;;;;11.55;100.00;102380.00;4974111;28;45315;-84
2022/02/23 02:34:15;;;;;;;;;4.25;4.25;;;;;11.56;100.00;102381.81;4974419;28;45470;-84
2022/02/23 02:36:41;;;;;;;;;3.50;2.50;;;;;11.52;100.00;102383.31;4956905;28;47143;-84
2022/02/23 02:39:08;;;;;;;;;8.25;5.50;;;;;11.52;100.00;102379.78;4973892;28;45461;-84
2022/02/23 02:41:35;;;;;;;;;6.75;4.50;;;;;11.45;100.00;102376.81;4956233;28;45330;-85
2022/02/23 02:44:01;;;;;;;;;5.50;5.25;;;;;11.41;100.00;102373.91;4973004;28;45821;-84
2022/02/23 02:46:27;;;;;;;;;8.25;5.50;;;;;11.38;100.00;102376.28;4973264;28;46111;-84
2022/02/23 02:48:53;;;;;;;;;11.00;6.50;;;;;11.36;100.00;102372.69;5041094;28;45295;-84
2022/02/23 02:51:20;;;;;;;;;9.25;6.25;;;;;11.34;100.00;102375.19;4972875;28;45289;-84
2022/02/23 02:53:45;;;;;;;;;8.00;4.00;;;;;11.29;100.00;102369.69;4973934;28;45548;-84
2022/02/23 02:56:11;;;;;;;;;8.00;5.50;;;;;11.26;100.00;102374.69;4973683;28;45471;-84
2022/02/23 02:58:36;;;;;;;;;3.25;3.25;;;;;11.23;100.00;102381.34;4960074;28;45372;-83
2022/02/23 03:01:03;;;;;;;;;9.75;4.25;;;;;11.22;100.00;102377.88;4978025;28;45818;-84
2022/02/23 03:03:29;;;;;;;;;8.00;5.50;;;;;11.18;100.00;102364.56;4977961;28;45308;-86
2022/02/23 03:05:54;;;;;;;;;6.25;5.50;;;;;11.17;100.00;102368.88;4976657;28;45810;-84
2022/02/23 03:08:20;;;;;;;;;8.50;4.00;;;;;11.16;100.00;102364.47;4976517;28;45481;-84
2022/02/23 03:10:46;;;;;;;;;9.00;4.00;;;;;11.19;100.00;102376.75;4976581;28;45277;-84
2022/02/23 03:13:11;;;;;;;;;4.00;4.00;;;;;11.20;100.00;102389.81;4977083;28;45316;-84
2022/02/23 03:15:37;;;;;;;;;7.25;5.25;;;;;11.19;100.00;102368.97;4959124;28;47703;-84
2022/02/23 03:18:04;;;;;;;;;6.25;6.00;;;;;11.24;100.00;102370.19;4959324;28;45265;-86
2022/02/23 03:20:32;;;;;;;;;9.00;4.00;;;;;11.23;100.00;102370.97;4976474;28;45241;-84
2022/02/23 03:22:58;;;;;;;;;7.75;6.00;;;;;11.23;100.00;102377.06;4976850;28;45483;-84
2022/02/23 03:25:24;;;;;;;;;10.00;8.75;;;;;11.25;100.00;102385.84;4976381;28;46197;-84
2022/02/23 03:27:49;;;;;;;;;7.25;5.75;;;;;11.21;100.00;102375.16;4958884;28;45375;-84
2022/02/23 03:30:16;;;;;;;;;11.25;6.25;;;;;11.21;100.00;102382.94;4959303;28;45337;-84
2022/02/23 03:32:42;;;;;;;;;8.00;6.00;;;;;11.16;100.00;102380.03;4976752;28;45477;-84
2022/02/23 03:35:09;;;;;;;;;6.75;5.00;;;;;11.13;100.00;102383.31;4959196;28;46772;-84
2022/02/23 03:37:35;;;;;;;;;4.00;4.00;;;;;11.14;100.00;102376.44;4959024;28;45337;-84
2022/02/23 03:40:01;;;;;;;;;9.00;4.00;;;;;11.10;100.00;102383.09;4959241;28;45364;-84
2022/02/23 03:42:27;;;;;;;;;7.50;6.00;;;;;11.08;100.00;102387.28;4976618;28;45473;-84
2022/02/23 03:44:52;;;;;;;;;4.25;4.00;;;;;11.10;100.00;102395.19;4959124;28;47663;-84
2022/02/23 03:47:18;;;;;;;;;5.00;4.25;;;;;11.04;100.00;102377.53;4976017;28;45269;-84
2022/02/23 03:49:44;;;;;;;;;11.50;5.75;;;;;11.11;100.00;102391.81;4976412;28;45684;-84
2022/02/23 03:52:10;;;;;;;;;4.75;4.00;;;;;11.09;100.00;102391.69;4959352;28;45261;-85
2022/02/23 03:54:36;;;;;;;;;9.25;5.50;;;;;11.05;100.00;102391.38;4976210;28;46294;-84
2022/02/23 03:57:03;;;;;;;;;13.50;7.25;;;;;11.04;100.00;102392.16;4976234;28;45741;-84
2022/02/23 03:59:29;;;;;;;;;7.00;6.00;;;;;10.98;100.00;102390.03;4958880;28;45193;-84
2022/02/23 04:01:56;;;;;;;;;6.75;6.50;;;;;10.98;100.00;102390.03;4976317;28;45209;-84
2022/02/23 04:04:22;;;;;;;;;8.75;5.75;;;;;10.99;100.00;102389.25;4975936;28;46395;-84
2022/02/23 04:06:49;;;;;;;;;12.00;6.75;;;;;10.97;100.00;102388.25;4958820;28;45833;-84
2022/02/23 04:09:16;;;;;;;;;9.25;6.25;;;;;10.91;100.00;102375.75;4958282;28;45597;-84
2022/02/23 04:11:41;;;;;;;;;7.00;5.75;;;;;10.92;100.00;102382.75;4976179;28;45538;-84
2022/02/23 04:14:08;;;;;;;;;6.50;4.75;;;;;10.93;100.00;102383.66;4958821;28;47724;-84
2022/02/23 04:16:35;;;;;;;;;6.25;6.00;;;;;10.94;100.00;102398.41;4976008;28;45251;-84
2022/02/23 04:19:03;;;;;;;;;6.00;5.25;;;;;10.93;100.00;102388.84;4958572;28;45410;-85
2022/02/23 04:21:28;;;;;;;;;6.50;4.25;;;;;10.91;100.00;102383.53;4976277;28;45438;-85
2022/02/23 04:23:54;;;;;;;;;4.75;4.25;;;;;10.87;100.00;102380.63;4976040;28;45800;-85
2022/02/23 04:26:20;;;;;;;;;6.00;5.50;;;;;10.86;100.00;102387.53;4976340;28;45499;-85
2022/02/23 04:28:46;;;;;;;;;5.00;5.00;;;;;10.79;100.00;102374.94;4977549;28;45422;-85
2022/02/23 04:31:13;;;;;;;;;4.00;3.00;;;;;10.83;100.00;102376.94;4960105;28;45465;-85
2022/02/23 04:33:39;;;;;;;;;7.25;5.00;;;;;10.82;100.00;102368.28;4978655;28;45629;-85
2022/02/23 04:36:06;;;;;;;;;6.50;4.50;;;;;10.80;100.00;102376.72;4979754;28;45342;-85
2022/02/23 04:38:32;;;;;;;;;4.00;4.00;;;;;10.82;100.00;102396.78;4980099;28;45430;-84
2022/02/23 04:40:58;;;;;;;;;4.50;4.50;;;;;10.73;100.00;102375.41;4959752;28;45358;-85
2022/02/23 04:43:24;;;;;;;;;5.75;3.25;;;;;10.73;100.00;102375.41;4977013;28;46265;-85
2022/02/23 04:45:50;;;;;;;;;8.25;5.50;;;;;10.74;100.00;102381.47;4978401;28;45421;-86
2022/02/23 04:48:17;;;;;;;;;9.50;5.00;;;;;10.73;100.00;102382.28;4958870;28;45374;-85
2022/02/23 04:50:43;;;;;;;;;5.75;5.25;;;;;10.76;100.00;102385.09;4958454;28;45794;-86
2022/02/23 04:53:08;;;;;;;;;5.75;3.00;;;;;10.72;100.00;102375.28;4976032;28;46283;-86
2022/02/23 04:55:35;;;;;;;;;4.50;4.25;;;;;10.72;100.00;102378.81;4975604;28;45261;-85
2022/02/23 04:58:07;;;;;;;;;5.00;3.00;;;;;10.73;100.00;102379.69;4958297;28;45316;-86
2022/02/23 05:00:35;;;;;;;;;5.25;5.25;;;;;10.70;100.00;102377.78;4975784;28;45546;-86
2022/02/23 05:03:01;;;;;;;;;11.75;5.50;;;;;10.71;100.00;102387.34;4975682;28;45336;-86
2022/02/23 05:05:26;;;;;;;;;5.00;4.25;;;;;10.65;100.00;102385.25;4958232;28;45473;-86
2022/02/23 05:07:52;;;;;;;;;7.25;4.50;;;;;10.69;100.00;102388.94;4975653;28;45387;-85
2022/02/23 05:10:17;;;;;;;;;13.25;7.00;;;;;10.68;100.00;102388.06;4975577;28;45632;-85
2022/02/23 05:12:43;;;;;;;;;7.00;5.00;;;;;10.69;100.00;102386.34;4975078;28;45641;-84
2022/02/23 05:15:09;;;;;;;;;7.50;6.75;;;;;10.68;100.00;102390.66;4957730;28;45457;-85
2022/02/23 05:17:35;;;;;;;;;7.00;5.50;;;;;10.64;100.00;102383.44;4957685;28;45322;-85
2022/02/23 05:20:00;;;;;;;;;7.00;4.25;;;;;10.64;100.00;102379.94;4974441;28;45368;-85
2022/02/23 05:22:26;;;;;;;;;7.00;5.25;;;;;10.58;100.00;102380.44;4976097;28;46303;-85
2022/02/23 05:24:51;;;;;;;;;8.75;7.50;;;;;10.62;100.00;102397.09;5042519;28;45518;-87
2022/02/23 05:27:17;;;;;;;;;13.25;6.50;;;;;10.60;100.00;102389.19;4976365;28;45440;-86
2022/02/23 05:29:43;;;;;;;;;11.75;5.75;;;;;10.62;100.00;102394.50;4976777;28;45557;-85
2022/02/23 05:32:08;;;;;;;;;5.25;5.25;;;;;10.63;100.00;102392.00;4975924;28;46168;-86
2022/02/23 05:34:34;;;;;;;;;7.25;5.75;;;;;10.58;100.00;102390.78;4959860;28;45509;-85
2022/02/23 05:36:59;;;;;;;;;8.00;8.00;;;;;10.60;100.00;102406.44;5043960;28;45346;-85
2022/02/23 05:39:25;;;;;;;;;10.50;8.50;;;;;10.48;100.00;102391.81;4958603;28;45227;-85
2022/02/23 05:41:51;;;;;;;;;10.75;7.00;;;;;10.49;100.00;102396.22;4973946;28;46175;-86
2022/02/23 05:44:16;;;;;;;;;11.50;7.00;;;;;10.51;100.00;102394.63;4982598;28;45260;-87
2022/02/23 05:46:42;;;;;;;;;9.00;8.00;;;;;10.50;100.00;102400.59;4960994;28;45525;-85
2022/02/23 05:49:08;;;;;;;;;7.00;5.75;;;;;10.48;100.00;102403.84;4962385;28;45505;-86
2022/02/23 05:51:36;;;;;;;;;7.75;7.00;;;;;10.48;100.00;102398.66;4981656;28;46130;-85
2022/02/23 05:54:02;;;;;;;;;10.50;7.50;;;;;10.54;100.00;102414.66;4960107;28;45877;-85
2022/02/23 05:56:29;;;;;;;;;7.50;5.00;;;;;10.55;100.00;102415.53;4977631;28;45304;-85
2022/02/23 05:58:55;;;;;;;;;12.00;7.00;;;;;10.55;100.00;102405.19;4976579;28;45240;-86
2022/02/23 06:01:22;;;;;;;;;9.00;7.00;;;;;10.57;100.00;102407.13;4958764;28;47712;-87
2022/02/23 06:03:48;;;;;;;;;10.75;7.00;;;;;10.50;100.00;102403.19;4959554;28;45505;-86
2022/02/23 06:06:14;;;;;;;;;9.50;8.00;;;;;10.45;100.00;102401.94;4959892;28;45445;-88
2022/02/23 06:08:40;;;;;;;;;9.50;7.50;;;;;10.52;100.00;102419.75;4961563;28;45324;-87
2022/02/23 06:11:08;;;;;;;;;12.00;7.75;;;;;10.52;100.00;102409.38;4959767;28;46796;-88
2022/02/23 06:13:34;;;;;;;;;15.25;10.00;;;;;10.57;100.00;102420.06;4958757;28;45675;-87
2022/02/23 06:16:03;;;;;;;;;13.25;8.50;;;;;10.59;100.00;102426.22;4959181;28;45201;-87
2022/02/23 06:18:29;;;;;;;;;16.00;11.50;;;;;10.56;100.00;102419.94;4959828;28;45324;-88
2022/02/23 06:20:55;;;;;;;;;12.00;10.75;;;;;10.56;100.00;102422.53;4976704;28;46081;-88
2022/02/23 06:23:26;;;;;;;;;14.25;10.00;;;;;10.43;100.00;102405.22;4974762;28;46075;-85
2022/02/23 06:25:53;;;;;;;;;8.75;8.75;;;;;10.41;100.00;102399.97;4989840;28;45373;-85
2022/02/23 06:28:19;;;;;;;;;14.50;11.00;;;;;10.51;100.00;102428.31;4956835;28;45487;-84
2022/02/23 06:30:46;;;;;;;;;15.50;12.00;;;;;10.43;100.00;102421.66;4957384;28;47026;-86
2022/02/23 06:33:12;;;;;;;;;12.00;8.00;;;;;10.33;100.00;102420.09;5024360;28;45715;-83
2022/02/23 06:35:39;;;;;;;;;10.00;9.75;;;;;10.29;100.00;102436.16;5025998;28;45279;-89
2022/02/23 06:38:06;;;;;;;;;7.75;6.00;;;;;10.30;100.00;102439.69;5062074;28;45639;-89
2022/02/23 06:40:35;;;;;;;;;12.75;8.50;;;;;10.31;100.00;102441.47;4958695;28;45340;-86
2022/02/23 06:43:01;;;;;;;;;13.50;11.50;;;;;10.32;100.00;102444.16;5025630;28;46005;-82
2022/02/23 06:45:27;;;;;;;;;10.75;9.00;;;;;10.32;100.00;102449.34;4976264;28;45510;-86
2022/02/23 06:47:53;;;;;;;;;15.00;12.50;;;;;10.29;100.00;102437.88;4988962;28;45279;-84
2022/02/23 06:50:18;;;;;;;;;11.25;11.25;;;;;10.37;100.00;102452.25;5066169;28;46149;-82
2022/02/23 06:52:44;;;;;;;;;13.00;11.00;;;;;10.37;100.00;102444.50;5002958;28;45181;-89
2022/02/23 06:55:11;;;;;;;;;14.00;12.25;;;;;10.42;100.00;102453.50;4993223;28;45359;-87
2022/02/23 06:57:42;;;;;;;;;17.75;14.50;;;;;10.45;100.00;102448.56;4992252;28;45556;-85
2022/02/23 07:00:09;;;;;;;;;15.25;14.00;;;;;10.44;100.00;102456.22;5007246;28;45737;-85
2022/02/23 07:02:36;;;;;;;;;16.25;14.25;;;;;10.45;100.00;102450.28;5060237;28;45738;-88
2022/02/23 07:05:03;;;;;;;;;28.25;20.50;;;;;10.43;100.00;102451.84;4995926;28;45269;-86
2022/02/23 07:07:29;;;;;;;;;20.25;19.25;;;;;10.37;100.00;102449.69;4978058;28;45459;-88
2022/02/23 07:09:55;;;;;;;;;26.25;20.50;;;;;10.34;100.00;102455.53;4979492;28;46017;-89
2022/02/23 07:12:21;;;;;;;;;26.25;18.50;;;;;10.32;100.00;102454.53;4981118;28;45537;-87
2022/02/23 07:14:46;;;;;;;;;24.50;19.00;;;;;10.31;100.00;102463.06;4978140;28;45403;-89
2022/02/23 07:17:12;;;;;;;;;15.00;15.00;;;;;10.31;100.00;102470.84;4977938;28;45524;-89
2022/02/23 07:19:37;;;;;;;;;25.25;17.75;;;;;10.25;100.00;102466.91;4960028;28;47329;-87
2022/02/23 07:22:04;;;;;;;;;19.50;15.50;;;;;10.29;100.00;102472.41;4977255;28;45268;-88
2022/02/23 07:24:32;;;;;;;;;24.75;19.75;;;;;10.28;100.00;102472.31;4984469;28;45257;-87
2022/02/23 07:27:02;;;;;;;;;27.00;18.50;;;;;10.24;100.00;102468.59;4984832;28;45497;-84
2022/02/23 07:29:27;;;;;;;;;22.50;19.00;;;;;10.20;100.00;102477.81;4978985;28;46160;-85
2022/02/23 07:31:53;;;;;;;;;24.50;19.75;;;;;10.18;100.00;102479.41;4979494;28;45346;-84
2022/02/23 07:34:19;;;;;;;;;29.25;22.25;;;;;10.14;100.00;102467.03;4976735;28;45201;-84
2022/02/23 07:36:45;;;;;;;;;17.50;13.50;;;;;10.15;100.00;102468.81;4976942;28;45203;-84
2022/02/23 07:39:11;;;;;;;;;28.75;22.50;;;;;10.15;100.00;102474.00;4996589;28;46907;-90
2022/02/23 07:41:36;;;;;;;;;28.75;18.00;;;;;10.09;100.00;102481.31;4976909;28;45224;-83
2022/02/23 07:44:02;;;;;;;;;21.25;15.25;;;;;10.01;100.00;102470.41;4977416;28;45515;-83
2022/02/23 07:46:28;;;;;;;;;20.75;16.00;;;;;10.05;100.00;102487.94;4979076;28;45296;-86
2022/02/23 07:49:00;;;;;;;;;27.25;21.25;;;;;10.04;100.00;102483.53;4982367;28;45412;-85
2022/02/23 07:51:26;;;;;;;;;27.25;21.75;;;;;10.03;100.00;102474.00;4977352;28;45385;-84
2022/02/23 07:53:54;;;;;;;;;29.75;24.50;;;;;10.04;100.00;102475.78;4977431;28;45335;-84
2022/02/23 07:56:21;;;;;;;;;26.00;21.75;;;;;10.06;100.00;102481.09;4959826;28;45454;-85
2022/02/23 07:58:48;;;;;;;;;23.25;18.00;;;;;10.04;100.00;102477.47;4977477;28;46324;-84
2022/02/23 08:01:43;;;;;;;;;19.00;17.75;;;;;10.04;100.00;102486.13;4980761;28;45240;-87
2022/02/23 08:04:09;;;;;;;;;17.75;15.75;;;;;10.02;100.00;102487.72;4986947;28;45354;-85
2022/02/23 08:06:35;;;;;;;;;23.25;16.00;;;;;10.00;100.00;102491.88;4983030;28;45189;-87
2022/02/23 08:09:02;;;;;;;;;20.00;17.75;;;;;9.97;100.00;102493.34;4984381;28;46233;-89
2022/02/23 08:11:29;;;;;;;;;18.00;16.50;;;;;9.93;100.00;102494.81;4979249;28;45912;-88
2022/02/23 08:13:59;;;;;;;;;24.00;20.25;;;;;9.94;100.00;102499.19;4993307;28;45349;-85
2022/02/23 08:19:31;;;;;;;;;18.00;17.25;;;;;9.96;100.00;102495.03;4977719;28;45377;-86
2022/02/23 08:21:59;;;;;;;;;25.50;20.75;;;;;9.98;100.00;102489.97;4978866;28;45400;-89
2022/02/23 08:24:27;;;;;;;;;22.75;20.00;;;;;9.99;100.00;102495.25;4980145;28;45436;-85
2022/02/23 08:26:55;;;;;;;;;23.75;19.75;;;;;10.01;100.00;102496.28;4976888;28;45518;-89
2022/02/23 08:29:21;;;;;;;;;27.25;19.75;;;;;10.04;100.00;102493.91;4990965;28;46619;-84
2022/02/23 08:31:47;;;;;;;;;26.50;20.50;;;;;10.02;100.00;102495.50;4984825;28;45283;-84
2022/02/23 08:34:13;;;;;;;;;27.00;22.75;;;;;10.02;100.00;102484.22;4988977;28;45323;-79
2022/02/23 08:36:38;;;;;;;;;23.00;20.50;;;;;9.97;100.00;102493.34;4990883;28;45326;-84
2022/02/23 08:39:06;;;;;;;;;27.50;21.50;;;;;9.93;100.00;102502.59;4986544;28;46056;-82
2022/02/23 08:41:33;;;;;;;;;21.25;19.50;;;;;9.89;100.00;102490.19;4997579;28;45330;-89
2022/02/23 08:44:00;;;;;;;;;22.25;17.50;;;;;9.96;100.00;102510.53;4980430;28;45343;-89
2022/02/23 08:46:26;;;;;;;;;22.25;20.00;;;;;9.92;100.00;102493.00;4960387;28;45614;-86
2022/02/23 08:48:52;;;;;;;;;21.00;16.75;;;;;9.95;100.00;102500.09;4961001;28;47666;-90
2022/02/23 08:51:18;;;;;;;;;25.25;20.50;;;;;9.97;100.00;102496.81;4977612;28;45321;-94
2022/02/23 08:53:44;;;;;;;;;16.75;15.50;;;;;10.00;100.00;102510.00;4960568;28;45366;-87
2022/02/23 08:56:12;;;;;;;;;32.50;25.25;;;;;9.98;100.00;102503.81;4974324;28;45560;-87
2022/02/23 08:58:38;;;;;;;;;23.25;21.25;;;;;9.94;100.00;102499.19;4974292;28;47765;-83
2022/02/23 09:01:03;;;;;;;;;28.50;25.50;;;;;10.05;100.00;102500.88;4976116;28;45257;-88
2022/02/23 09:03:29;;;;;;;;;23.75;19.00;;;;;10.09;100.00;102502.03;4961897;28;45396;-86
2022/02/23 09:05:54;;;;;;;;;35.00;26.00;;;;;10.10;100.00;102495.16;4995286;28;45208;-84
2022/02/23 09:08:20;;;;;;;;;32.25;28.75;;;;;10.11;100.00;102497.84;4976687;28;46388;-82
2022/02/23 09:10:46;;;;;;;;;31.00;27.25;;;;;10.13;100.00;102491.09;5062456;28;45630;-82
2022/02/23 09:13:11;;;;;;;;;30.00;22.00;;;;;10.18;100.00;102491.44;4988161;28;45355;-82
2022/02/23 09:15:37;;;;;;;;;30.50;24.00;;;;;10.14;100.00;102489.44;4975370;28;45665;-82
2022/02/23 09:18:03;;;;;;;;;36.00;28.50;;;;;10.15;100.00;102494.72;4958146;28;47501;-82
2022/02/23 09:20:29;;;;;;;;;32.25;23.25;;;;;10.14;100.00;102490.31;4974965;28;45675;-82
2022/02/23 09:22:55;;;;;;;;;31.25;26.25;;;;;10.18;100.00;102489.75;4974979;28;45363;-81
2022/02/23 09:25:21;;;;;;;;;33.00;29.75;;;;;10.23;100.00;102487.50;4980964;28;46273;-82
2022/02/23 09:27:47;;;;;;;;;28.75;27.00;;;;;10.24;100.00;102489.31;4991182;28;47757;-77
2022/02/23 09:30:14;;;;;;;;;35.25;27.00;;;;;10.27;100.00;102491.22;4976607;28;45364;-81
2022/02/23 09:32:42;;;;;;;;;29.75;28.50;;;;;10.31;100.00;102482.91;4977388;28;45283;-83
2022/02/23 09:35:11;;;;;;;;;33.25;27.50;;;;;10.33;100.00;102483.88;4977469;28;45490;-82
2022/02/23 09:37:37;;;;;;;;;28.25;24.00;;;;;10.33;100.00;102481.28;4977741;28;46051;-85
2022/02/23 09:40:06;;;;;;;;;31.50;26.00;;;;;10.34;100.00;102475.34;4976194;28;46043;-85
2022/02/23 09:42:32;;;;;;;;;31.75;31.00;;;;;10.35;100.00;102478.06;4975566;28;45383;-86
2022/02/23 09:45:03;;;;;;;;;38.25;31.50;;;;;10.39;100.00;102476.63;4975225;28;45537;-82
2022/02/23 09:47:32;;;;;;;;;34.25;31.25;;;;;10.43;100.00;102468.25;4975871;28;46153;-83
2022/02/23 09:50:05;;;;;;;;;35.75;30.00;;;;;10.43;100.00;102462.19;4975892;28;45329;-87
2022/02/23 09:52:31;;;;;;;;;35.25;31.75;;;;;10.49;100.00;102465.22;4975906;28;45235;-84
2022/02/23 09:54:58;;;;;;;;;38.50;32.25;;;;;10.47;100.00;102452.16;4975605;28;45320;-85
2022/02/23 09:57:25;;;;;;;;;30.00;29.25;;;;;10.53;100.00;102455.19;4977709;28;45416;-86
2022/02/23 09:59:51;;;;;;;;;33.50;29.75;;;;;10.51;100.00;102448.09;4977807;28;45889;-90
2022/02/23 10:02:19;;;;;;;;;35.75;31.00;;;;;10.58;100.00;102449.44;4975292;28;45346;-84
2022/02/23 10:04:45;;;;;;;;;40.00;33.25;;;;;10.60;100.00;102440.09;4982303;28;44921;-87
2022/02/23 10:07:12;;;;;;;;;38.75;31.50;;;;;10.62;100.00;102442.00;4987019;28;46222;-87
2022/02/23 10:09:51;;;;;;;;;40.00;30.25;;;;;10.62;100.00;102438.53;4966520;28;45537;-84
2022/02/23 10:12:18;;;;;;;;;37.25;31.75;;;;;10.57;100.00;102430.44;4970775;28;45320;-84
2022/02/23 10:14:45;;;;;;;;;33.75;31.25;;;;;10.58;100.00;102442.59;4979566;28;45518;-85
2022/02/23 10:17:11;;;;;;;;;39.00;34.50;;;;;10.48;100.00;102417.72;4978230;28;46563;-85
2022/02/23 10:19:49;;;;;;;;;39.75;32.25;;;;;10.55;100.00;102425.91;4993466;28;45851;-85
2022/02/23 10:22:20;;;;;;;;;50.00;34.25;;;;;10.57;100.00;102426.91;4995366;28;45432;-84
2022/02/23 10:24:46;;;;;;;;;39.75;33.50;;;;;10.63;100.00;102433.44;4983972;28;45163;-85
2022/02/23 10:27:14;;;;;;;;;38.00;32.00;;;;;10.65;100.00;102430.94;4978720;28;47109;-85
2022/02/23 10:29:55;;;;;;;;;34.75;30.50;;;;;10.67;100.00;102437.13;4992690;28;45949;-85
2022/02/23 10:32:25;;;;;;;;;40.00;32.75;;;;;10.65;100.00;102439.63;5045909;28;45263;-84
2022/02/23 10:34:58;;;;;;;;;39.00;33.50;;;;;10.68;100.00;102438.94;4993859;28;45560;-84
2022/02/23 10:37:26;;;;;;;;;37.50;33.25;;;;;10.64;100.00;102418.78;4976398;28;46238;-85
2022/02/23 10:40:00;;;;;;;;;46.25;35.25;;;;;10.72;100.00;102430.59;4956935;28;45901;-84
2022/02/23 10:42:33;;;;;;;;;36.50;32.25;;;;;10.75;100.00;102423.03;4974535;28;45237;-85
2022/02/23 10:45:00;;;;;;;;;43.25;33.75;;;;;10.77;100.00;102413.69;4974495;28;45393;-85
2022/02/23 10:47:36;;;;;;;;;36.50;28.50;;;;;10.84;100.00;102410.75;4974100;28;45391;-84
2022/02/23 10:50:07;;;;;;;;;32.50;28.50;;;;;10.89;100.00;102408.47;4974859;28;45389;-87
2022/02/23 10:52:37;;;;;;;;;40.00;31.00;;;;;10.91;100.00;102409.44;4961664;28;45721;-87
2022/02/23 10:55:28;;;;;;;;;39.75;32.00;;;;;10.91;100.00;102393.91;4982358;28;45465;-87
2022/02/23 10:58:02;;;;;;;;;37.25;30.00;;;;;10.94;100.00;102390.66;4964568;28;47929;-87
2022/02/23 11:00:39;;;;;;;;;32.50;27.00;;;;;11.04;100.00;102397.34;4976835;28;45764;-86
2022/02/23 11:03:06;;;;;;;;;31.00;27.75;;;;;11.10;100.00;102390.00;4974847;28;45453;-87
2022/02/23 11:05:33;;;;;;;;;27.50;19.75;;;;;11.17;100.00;102394.78;4975258;28;45485;-85
2022/02/23 11:08:01;;;;;;;;;27.50;23.50;;;;;11.23;100.00;102389.13;4973795;28;45296;-87
2022/02/23 11:10:28;;;;;;;;;35.25;28.00;;;;;11.30;100.00;102392.25;4958542;28;45198;-87